Time;durP1;ratioP1;P1;durP2;ratioP2;P2;SDS_P1;SDS_P2;PMS_P1;PMS_P2;Temp;Humidity;BMP_temperature;BMP_pressure;BME280_temperature;BME280_humidity;BME280_pressure;Samples;Min_cycle;Max_cycle;Signal;HPM_P1;HPM_P2
2021/04/14 00:01:50;;;;;;;16.50;12.63;;;1.00;99.90;;;;;;4174833;28;20033;-81
2021/04/14 00:03:50;;;;;;;18.23;12.50;;;1.00;99.90;;;;;;4177309;28;20029;-81
2021/04/14 00:05:52;;;;;;;16.90;12.82;;;1.00;99.90;;;;;;4174884;28;20040;-81
2021/04/14 00:07:53;;;;;;;18.77;12.77;;;1.10;99.90;;;;;;4192715;28;20073;-81
2021/04/14 00:09:54;;;;;;;20.95;14.38;;;1.00;99.90;;;;;;4191366;28;20074;-81
2021/04/14 00:11:57;;;;;;;18.30;14.00;;;1.10;99.90;;;;;;4174820;28;20068;-81
2021/04/14 00:13:58;;;;;;;17.08;13.18;;;1.10;99.90;;;;;;4175223;28;20083;-80
2021/04/14 00:16:00;;;;;;;18.00;12.65;;;1.10;99.90;;;;;;4190563;28;20133;-80
2021/04/14 00:18:00;;;;;;;16.83;12.90;;;1.10;99.90;;;;;;4175634;28;20111;-81
2021/04/14 00:20:02;;;;;;;19.52;12.43;;;1.10;99.90;;;;;;4175544;28;20118;-81
2021/04/14 00:22:03;;;;;;;17.05;11.95;;;1.20;99.90;;;;;;4174467;28;20037;-81
2021/04/14 00:24:05;;;;;;;16.05;12.20;;;1.20;99.90;;;;;;4192009;28;20538;-80
2021/04/14 00:26:07;;;;;;;15.43;11.70;;;1.20;99.90;;;;;;4175726;28;20569;-81
2021/04/14 00:28:08;;;;;;;17.75;11.27;;;1.20;99.90;;;;;;4195622;28;20499;-81
2021/04/14 00:30:10;;;;;;;18.17;11.95;;;1.20;99.90;;;;;;4197261;28;20031;-81
2021/04/14 00:32:11;;;;;;;19.58;12.40;;;1.20;99.90;;;;;;4180256;28;20045;-81
2021/04/14 00:34:18;;;;;;;18.10;11.95;;;1.20;99.90;;;;;;4167835;28;20455;-80
2021/04/14 00:36:19;;;;;;;19.55;11.68;;;1.20;99.90;;;;;;4197124;28;20103;-81
2021/04/14 00:38:21;;;;;;;12.82;11.50;;;1.20;99.90;;;;;;4196507;28;20121;-81
2021/04/14 00:40:36;;;;;;;17.52;11.88;;;1.20;99.90;;;;;;4180393;28;20519;-81
2021/04/14 00:42:37;;;;;;;16.10;11.45;;;1.20;99.90;;;;;;4183188;28;20468;-81
2021/04/14 00:44:38;;;;;;;15.63;10.80;;;1.20;99.90;;;;;;4179473;28;20075;-81
2021/04/14 00:46:39;;;;;;;15.05;12.10;;;1.20;99.90;;;;;;4197021;28;20033;-81
2021/04/14 00:48:39;;;;;;;20.15;12.25;;;1.20;99.90;;;;;;4196861;28;20443;-80
2021/04/14 00:50:41;;;;;;;14.27;11.88;;;1.20;99.90;;;;;;4180309;28;20033;-80
2021/04/14 00:52:42;;;;;;;17.38;13.27;;;1.30;99.90;;;;;;4195353;28;20040;-81
2021/04/14 00:54:43;;;;;;;15.85;11.90;;;1.30;99.90;;;;;;4195380;28;20039;-81
2021/04/14 00:56:44;;;;;;;17.05;12.63;;;1.30;99.90;;;;;;4179743;28;20120;-81
2021/04/14 00:58:44;;;;;;;17.83;13.00;;;1.30;99.90;;;;;;4179884;28;20033;-80
2021/04/14 01:00:51;;;;;;;15.30;12.18;;;1.30;99.90;;;;;;4191676;28;20036;-80
2021/04/14 01:02:52;;;;;;;19.08;12.45;;;1.30;99.90;;;;;;4179845;28;20060;-80
2021/04/14 01:04:53;;;;;;;19.02;12.27;;;1.30;99.90;;;;;;4196508;28;20036;-80
2021/04/14 01:06:53;;;;;;;18.10;12.30;;;1.30;99.90;;;;;;4180213;28;20357;-80
2021/04/14 01:08:55;;;;;;;21.67;13.52;;;1.40;99.90;;;;;;4196377;28;20033;-81
2021/04/14 01:10:56;;;;;;;18.95;11.95;;;1.40;99.90;;;;;;4196402;28;20024;-81
2021/04/14 01:12:57;;;;;;;18.20;13.40;;;1.40;99.90;;;;;;4180134;28;20559;-81
2021/04/14 01:14:58;;;;;;;22.27;13.55;;;1.40;99.90;;;;;;4180089;28;20507;-81
2021/04/14 01:16:59;;;;;;;20.45;12.05;;;1.50;99.90;;;;;;4180065;28;20049;-80
2021/04/14 01:19:00;;;;;;;17.80;13.50;;;1.50;99.90;;;;;;4179878;28;20492;-80
2021/04/14 01:21:07;;;;;;;14.57;11.13;;;1.60;99.90;;;;;;4179667;28;20029;-80
2021/04/14 01:23:09;;;;;;;17.08;12.55;;;1.60;99.90;;;;;;4179398;28;20463;-81
2021/04/14 01:25:15;;;;;;;16.10;13.23;;;1.60;99.90;;;;;;4179424;28;20052;-81
2021/04/14 01:27:16;;;;;;;18.70;11.73;;;1.60;99.90;;;;;;4179704;28;20510;-81
2021/04/14 01:29:20;;;;;;;17.67;13.25;;;1.60;99.90;;;;;;4179553;28;20045;-81
2021/04/14 01:31:33;;;;;;;17.77;11.35;;;1.60;99.90;;;;;;4213035;28;20073;-80
2021/04/14 01:33:34;;;;;;;;;;;1.50;99.90;;;;;;4181256;28;20479;-81
2021/04/14 01:35:36;;;;;;;16.67;12.55;;;1.60;99.90;;;;;;4196320;28;20359;-81
2021/04/14 01:37:36;;;;;;;16.83;12.07;;;1.60;99.90;;;;;;4196309;28;20110;-81
2021/04/14 01:39:37;;;;;;;17.75;12.70;;;1.60;99.90;;;;;;4178855;28;20044;-81
2021/04/14 01:41:39;;;;;;;15.05;12.38;;;1.60;99.90;;;;;;4207238;28;20047;-81
2021/04/14 01:43:39;;;;;;;16.33;12.45;;;1.70;99.90;;;;;;4179364;28;20084;-81
2021/04/14 01:45:44;;;;;;;15.38;11.48;;;1.60;99.90;;;;;;4195880;28;20056;-81
2021/04/14 01:47:45;;;;;;;16.70;11.05;;;1.60;99.90;;;;;;4196271;28;20438;-81
2021/04/14 01:49:46;;;;;;;16.13;12.20;;;1.60;99.90;;;;;;4179630;28;20041;-81
2021/04/14 01:51:48;;;;;;;15.65;11.77;;;1.60;99.90;;;;;;4196144;28;20041;-81
2021/04/14 01:53:50;;;;;;;15.05;11.13;;;1.60;99.90;;;;;;4169002;28;20502;-81
2021/04/14 01:55:51;;;;;;;17.88;11.13;;;1.60;99.90;;;;;;4195605;28;20048;-81
2021/04/14 01:57:53;;;;;;;15.52;11.95;;;1.50;99.90;;;;;;4195821;28;20063;-81
2021/04/14 01:59:54;;;;;;;13.60;11.38;;;1.50;99.90;;;;;;4196115;28;20462;-81
2021/04/14 02:01:55;;;;;;;14.35;12.38;;;1.50;99.90;;;;;;4195809;28;20418;-81
2021/04/14 02:03:55;;;;;;;16.67;12.82;;;1.50;99.90;;;;;;4195729;28;20044;-81
2021/04/14 02:05:57;;;;;;;15.65;12.82;;;1.50;99.90;;;;;;4179298;28;20044;-81
2021/04/14 02:07:59;;;;;;;14.25;10.57;;;1.50;99.90;;;;;;4195566;28;20028;-81
2021/04/14 02:09:59;;;;;;;16.85;12.00;;;1.50;99.90;;;;;;4179007;28;20033;-81
2021/04/14 02:12:00;;;;;;;14.95;11.85;;;1.50;99.90;;;;;;4188172;28;20185;-81
2021/04/14 02:14:01;;;;;;;13.85;11.45;;;1.60;99.90;;;;;;4179100;28;20032;-81
2021/04/14 02:16:08;;;;;;;15.77;11.93;;;1.60;99.90;;;;;;4175356;28;20334;-81
2021/04/14 02:18:09;;;;;;;15.32;11.48;;;1.60;99.90;;;;;;4164438;28;20037;-80
2021/04/14 02:20:11;;;;;;;15.27;13.25;;;1.60;99.90;;;;;;4177132;28;20500;-80
2021/04/14 02:22:11;;;;;;;15.30;11.30;;;1.60;99.90;;;;;;4193881;28;20059;-82
2021/04/14 02:24:12;;;;;;;18.17;11.63;;;1.60;99.90;;;;;;4172201;28;20037;-82
2021/04/14 02:26:20;;;;;;;15.15;12.52;;;1.60;99.90;;;;;;4193512;28;20085;-81
2021/04/14 02:28:21;;;;;;;16.60;11.75;;;1.60;99.90;;;;;;4177132;28;20389;-81
2021/04/14 02:30:25;;;;;;;17.92;12.07;;;1.60;99.90;;;;;;4166935;28;20052;-81
2021/04/14 02:32:26;;;;;;;16.90;12.50;;;1.50;99.90;;;;;;4193782;28;20119;-81
2021/04/14 02:34:27;;;;;;;14.23;12.43;;;1.60;99.90;;;;;;4194571;28;20067;-81
2021/04/14 02:36:29;;;;;;;17.58;12.65;;;1.60;99.90;;;;;;4177205;28;20045;-81
2021/04/14 02:38:29;;;;;;;17.55;12.02;;;1.60;99.90;;;;;;4190374;28;20032;-81
2021/04/14 02:40:31;;;;;;;19.02;12.30;;;1.60;99.90;;;;;;4193561;28;20423;-81
2021/04/14 02:42:32;;;;;;;15.93;12.40;;;1.60;99.90;;;;;;4193905;28;20052;-81
2021/04/14 02:44:32;;;;;;;19.13;12.35;;;1.60;99.90;;;;;;4177457;28;20124;-82
2021/04/14 02:46:33;;;;;;;16.38;12.90;;;1.60;99.90;;;;;;4194092;28;20056;-80
2021/04/14 02:48:35;;;;;;;17.38;11.98;;;1.60;99.90;;;;;;4195057;28;20070;-81
2021/04/14 02:50:36;;;;;;;16.80;12.77;;;1.60;99.90;;;;;;4195069;28;20476;-81
2021/04/14 02:52:37;;;;;;;15.90;12.65;;;1.60;99.90;;;;;;4194275;28;20414;-81
2021/04/14 02:54:37;;;;;;;18.60;13.07;;;1.60;99.90;;;;;;4169109;28;20064;-81
2021/04/14 02:56:38;;;;;;;15.90;12.15;;;1.60;99.90;;;;;;4211394;28;20123;-81
2021/04/14 02:58:39;;;;;;;19.38;13.32;;;1.50;99.90;;;;;;4178477;28;20480;-81
2021/04/14 03:00:40;;;;;;;18.17;14.00;;;1.50;99.90;;;;;;4176275;28;20178;-81
2021/04/14 03:02:40;;;;;;;20.80;14.80;;;1.50;99.90;;;;;;4194496;28;20031;-81
2021/04/14 03:04:41;;;;;;;21.73;14.38;;;1.50;99.90;;;;;;4194118;28;20024;-81
2021/04/14 03:06:42;;;;;;;23.80;15.90;;;1.40;99.90;;;;;;4194093;28;20029;-81
2021/04/14 03:08:43;;;;;;;18.52;13.18;;;1.40;99.90;;;;;;4194933;28;20082;-81
2021/04/14 03:10:43;;;;;;;18.83;13.55;;;1.40;99.90;;;;;;4178000;28;20032;-81
2021/04/14 03:12:44;;;;;;;17.27;14.13;;;1.30;99.90;;;;;;4194833;28;20041;-81
2021/04/14 03:14:45;;;;;;;18.85;13.77;;;1.30;99.90;;;;;;4178036;28;20052;-81
2021/04/14 03:16:46;;;;;;;20.83;14.20;;;1.30;99.90;;;;;;4210394;28;20376;-80
2021/04/14 03:18:47;;;;;;;18.20;13.57;;;1.20;99.90;;;;;;4177913;28;20041;-81
2021/04/14 03:20:49;;;;;;;17.92;14.43;;;1.20;99.90;;;;;;4178046;28;20064;-81
2021/04/14 03:22:53;;;;;;;19.77;14.50;;;1.20;99.90;;;;;;4177721;28;20041;-81
2021/04/14 03:24:54;;;;;;;19.73;14.93;;;1.20;99.90;;;;;;4177785;28;20033;-81
2021/04/14 03:26:55;;;;;;;20.33;14.52;;;1.30;99.90;;;;;;4178096;28;20036;-81
2021/04/14 03:28:55;;;;;;;17.92;13.90;;;1.30;99.90;;;;;;4177872;28;20044;-81
2021/04/14 03:30:56;;;;;;;22.13;15.40;;;1.30;99.90;;;;;;4194516;28;20028;-81
2021/04/14 03:32:57;;;;;;;19.48;14.93;;;1.30;99.90;;;;;;4194542;28;20056;-81
2021/04/14 03:34:59;;;;;;;17.98;15.00;;;1.20;99.90;;;;;;4177743;28;20037;-81
2021/04/14 03:36:59;;;;;;;19.95;14.18;;;1.20;99.90;;;;;;4194348;28;20042;-80
2021/04/14 03:39:00;;;;;;;15.73;14.13;;;1.20;99.90;;;;;;4194411;28;20123;-80
2021/04/14 03:41:01;;;;;;;20.33;16.45;;;1.10;99.90;;;;;;4194228;28;20036;-80
2021/04/14 03:43:02;;;;;;;18.85;14.60;;;1.10;99.90;;;;;;4176868;28;20037;-81
2021/04/14 03:45:11;;;;;;;18.10;14.15;;;1.00;99.90;;;;;;4177938;28;20033;-81
2021/04/14 03:47:12;;;;;;;16.48;13.85;;;0.90;99.90;;;;;;4210900;28;20503;-80
2021/04/14 03:49:13;;;;;;;20.88;15.50;;;0.80;99.90;;;;;;4194053;28;20127;-81
2021/04/14 03:51:15;;;;;;;19.27;15.63;;;0.80;99.90;;;;;;4177525;28;20036;-81
2021/04/14 03:53:25;;;;;;;22.33;15.65;;;0.80;99.90;;;;;;4202390;28;20032;-81
2021/04/14 03:55:26;;;;;;;20.05;14.35;;;0.70;99.90;;;;;;4192575;28;20085;-80
2021/04/14 03:57:26;;;;;;;24.10;16.83;;;0.60;99.90;;;;;;4192625;28;20037;-81
2021/04/14 03:59:27;;;;;;;23.55;16.27;;;0.60;99.90;;;;;;4186674;28;20153;-81
2021/04/14 04:01:31;;;;;;;22.60;16.35;;;0.60;99.90;;;;;;4185293;28;20032;-81
2021/04/14 04:03:32;;;;;;;23.73;15.05;;;0.60;99.90;;;;;;4177682;28;20036;-81
2021/04/14 04:05:33;;;;;;;24.63;16.92;;;0.50;99.90;;;;;;4179349;28;20130;-81
2021/04/14 04:07:34;;;;;;;25.88;18.13;;;0.50;99.90;;;;;;4195911;28;20044;-81
2021/04/14 04:09:35;;;;;;;24.63;17.88;;;0.40;99.90;;;;;;4179244;28;20025;-81
2021/04/14 04:11:35;;;;;;;21.17;15.77;;;0.40;99.90;;;;;;4179105;28;20044;-81
2021/04/14 04:13:37;;;;;;;24.50;18.65;;;0.40;99.90;;;;;;4195862;28;20032;-81
2021/04/14 04:15:37;;;;;;;27.02;18.08;;;0.40;99.90;;;;;;4196162;28;20493;-81
2021/04/14 04:17:40;;;;;;;27.08;16.60;;;0.40;99.90;;;;;;4212852;28;20134;-80
2021/04/14 04:19:41;;;;;;;20.55;17.20;;;0.40;99.90;;;;;;4196775;28;20047;-80
2021/04/14 04:21:42;;;;;;;26.30;18.02;;;0.50;99.90;;;;;;4197394;28;20040;-81
2021/04/14 04:23:44;;;;;;;27.27;17.33;;;0.50;99.90;;;;;;4180413;28;20049;-81
2021/04/14 04:25:44;;;;;;;26.45;18.77;;;0.60;99.90;;;;;;4197288;28;20091;-80
2021/04/14 04:27:45;;;;;;;28.90;18.35;;;0.60;99.90;;;;;;4179917;28;20484;-81
2021/04/14 04:29:46;;;;;;;23.88;18.55;;;0.60;99.90;;;;;;4191898;28;20041;-81
2021/04/14 04:31:47;;;;;;;29.75;18.20;;;0.70;99.90;;;;;;4179538;28;20465;-80
2021/04/14 04:33:47;;;;;;;26.33;18.85;;;0.60;99.90;;;;;;4183102;28;20435;-80
2021/04/14 04:35:48;;;;;;;23.63;17.80;;;0.60;99.90;;;;;;4180620;28;20087;-80
2021/04/14 04:37:49;;;;;;;25.83;18.27;;;0.60;99.90;;;;;;4212517;28;20186;-80
2021/04/14 04:39:50;;;;;;;32.45;19.48;;;0.60;99.90;;;;;;4180627;28;20041;-81
2021/04/14 04:41:51;;;;;;;27.75;17.63;;;0.60;99.90;;;;;;4180414;28;20124;-81
2021/04/14 04:43:52;;;;;;;29.77;18.83;;;0.60;99.90;;;;;;4196954;28;20051;-81
2021/04/14 04:45:52;;;;;;;25.40;18.42;;;0.60;99.90;;;;;;4180425;28;20029;-80
2021/04/14 04:47:55;;;;;;;27.52;19.73;;;0.60;99.90;;;;;;4168893;28;20124;-81
2021/04/14 04:49:55;;;;;;;34.83;19.85;;;0.70;99.90;;;;;;4189031;28;20391;-81
2021/04/14 04:51:56;;;;;;;28.95;19.92;;;0.80;99.90;;;;;;4180362;28;20044;-81
2021/04/14 04:53:57;;;;;;;32.28;21.33;;;0.90;99.90;;;;;;4196668;28;20518;-81
2021/04/14 04:55:58;;;;;;;26.52;18.27;;;0.90;99.90;;;;;;4180344;28;20029;-81
2021/04/14 04:57:59;;;;;;;34.00;23.88;;;1.00;99.90;;;;;;4196817;28;20035;-80
2021/04/14 04:59:59;;;;;;;32.72;22.58;;;1.10;99.90;;;;;;4196859;28;20039;-81
2021/04/14 05:02:01;;;;;;;32.05;22.98;;;1.20;99.90;;;;;;4178916;28;20133;-80
2021/04/14 05:04:02;;;;;;;35.92;22.92;;;1.30;99.90;;;;;;4179451;28;20045;-81
2021/04/14 05:06:04;;;;;;;29.42;23.15;;;1.40;99.90;;;;;;4187400;28;20040;-81
2021/04/14 05:08:06;;;;;;;33.92;23.15;;;1.40;99.90;;;;;;4187492;28;20595;-81
2021/04/14 05:10:08;;;;;;;30.40;21.60;;;1.50;99.90;;;;;;4179372;28;20037;-81
2021/04/14 05:12:09;;;;;;;34.67;21.73;;;1.50;99.90;;;;;;4193313;28;20037;-81
2021/04/14 05:14:10;;;;;;;30.20;22.20;;;1.50;99.90;;;;;;4178534;28;20056;-80
2021/04/14 05:16:11;;;;;;;30.30;20.55;;;1.40;99.90;;;;;;4177615;28;20045;-80
2021/04/14 05:18:12;;;;;;;31.90;19.92;;;1.50;99.90;;;;;;4204951;28;20487;-80
2021/04/14 05:20:12;;;;;;;24.02;19.42;;;1.50;99.90;;;;;;4171187;28;20030;-81
2021/04/14 05:22:13;;;;;;;31.95;20.30;;;1.50;99.90;;;;;;4196565;28;20032;-80
2021/04/14 05:24:14;;;;;;;25.63;18.63;;;1.50;99.90;;;;;;4196185;28;20029;-80
2021/04/14 05:26:16;;;;;;;24.63;17.80;;;1.60;99.90;;;;;;4179485;28;20126;-80
2021/04/14 05:28:20;;;;;;;26.20;15.80;;;1.60;99.90;;;;;;4179797;28;20036;-80
2021/04/14 05:30:21;;;;;;;23.17;17.52;;;1.70;99.90;;;;;;4195851;28;20044;-79
2021/04/14 05:32:25;;;;;;;26.05;17.42;;;1.70;99.90;;;;;;4196491;28;20041;-80
2021/04/14 05:34:25;;;;;;;22.23;17.83;;;1.80;99.90;;;;;;4179778;28;20041;-80
2021/04/14 05:36:27;;;;;;;23.30;17.33;;;1.80;99.90;;;;;;4190045;28;20046;-80
2021/04/14 05:38:30;;;;;;;21.20;16.80;;;1.80;99.90;;;;;;4179545;28;20051;-80
2021/04/14 05:40:32;;;;;;;24.60;16.25;;;1.80;99.90;;;;;;4196315;28;20044;-79
2021/04/14 05:42:42;;;;;;;20.45;16.38;;;1.90;99.90;;;;;;4179475;28;20041;-80
2021/04/14 05:44:43;;;;;;;29.92;16.25;;;1.90;99.90;;;;;;4213006;28;20044;-78
2021/04/14 05:46:44;;;;;;;16.52;14.25;;;2.00;99.90;;;;;;4195861;28;20028;-79
2021/04/14 05:48:48;;;;;;;23.17;16.33;;;2.00;99.90;;;;;;4195173;28;20146;-77
2021/04/14 05:50:49;;;;;;;23.00;16.08;;;2.10;99.90;;;;;;4195238;28;20506;-80
2021/04/14 05:52:52;;;;;;;24.15;15.98;;;2.20;99.90;;;;;;4179158;28;20407;-80
2021/04/14 05:54:53;;;;;;;27.30;19.77;;;2.40;99.90;;;;;;4179017;28;20123;-82
2021/04/14 05:56:54;;;;;;;31.30;20.02;;;2.50;99.90;;;;;;4185260;28;20123;-81
2021/04/14 05:58:55;;;;;;;31.17;22.27;;;2.60;99.90;;;;;;4203847;28;20119;-80
2021/04/14 06:00:56;;;;;;;28.60;23.05;;;2.70;99.90;;;;;;4194605;28;20525;-81
2021/04/14 06:02:57;;;;;;;32.05;24.15;;;2.80;99.90;;;;;;4174015;28;20037;-81
2021/04/14 06:04:58;;;;;;;30.67;21.67;;;2.80;99.90;;;;;;4178991;28;20100;-79
2021/04/14 06:06:59;;;;;;;33.38;22.05;;;2.90;99.90;;;;;;4190590;28;20503;-80
2021/04/14 06:08:59;;;;;;;27.42;19.58;;;2.90;99.90;;;;;;4212599;28;20118;-81
2021/04/14 06:11:01;;;;;;;26.48;17.80;;;3.00;99.90;;;;;;4178866;28;20037;-79
2021/04/14 06:13:02;;;;;;;24.63;16.92;;;3.00;99.90;;;;;;4195296;28;20609;-79
2021/04/14 06:15:13;;;;;;;27.70;18.92;;;3.10;99.90;;;;;;4195237;28;20036;-79
2021/04/14 06:17:14;;;;;;;21.23;16.45;;;3.10;99.90;;;;;;4194929;28;20107;-78
2021/04/14 06:19:15;;;;;;;30.95;21.55;;;3.30;99.90;;;;;;4194901;28;20103;-80
2021/04/14 06:21:17;;;;;;;32.92;20.27;;;3.40;99.90;;;;;;4178476;28;20044;-78
2021/04/14 06:23:20;;;;;;;27.25;17.20;;;3.40;99.90;;;;;;4172696;28;20045;-80
2021/04/14 06:25:22;;;;;;;25.95;17.23;;;3.60;99.90;;;;;;4195125;28;20044;-80
2021/04/14 06:27:31;;;;;;;29.08;17.58;;;3.70;99.90;;;;;;4178830;28;20033;-81
2021/04/14 06:29:33;;;;;;;26.80;16.98;;;3.80;99.90;;;;;;4195353;28;20060;-80
2021/04/14 06:31:40;;;;;;;28.30;17.77;;;4.00;99.90;;;;;;4177910;28;20377;-83
2021/04/14 06:33:42;;;;;;;28.38;16.77;;;4.20;99.90;;;;;;4193015;28;20530;-82
2021/04/14 06:35:42;;;;;;;28.13;19.55;;;4.30;99.90;;;;;;4176651;28;20025;-81
2021/04/14 06:37:44;;;;;;;41.70;17.52;;;4.30;99.90;;;;;;4176626;28;20039;-80
2021/04/14 06:39:52;;;;;;;23.02;16.65;;;4.40;99.90;;;;;;4193455;28;20032;-80
2021/04/14 06:42:24;;;;;;;20.95;15.32;;;4.40;99.90;;;;;;4193477;28;20028;-83
2021/04/14 06:45:11;;;;;;;23.40;15.73;;;4.30;99.90;;;;;;4187641;28;20040;-79
2021/04/14 06:47:54;;;;;;;21.83;14.25;;;4.40;99.90;;;;;;4194146;28;20053;-79
2021/04/14 06:50:13;;;;;;;15.85;14.15;;;4.50;99.90;;;;;;4193118;28;20036;-79
2021/04/14 06:52:54;;;;;;;18.95;15.50;;;4.60;99.90;;;;;;4192613;28;20040;-80
2021/04/14 06:55:12;;;;;;;20.35;13.88;;;4.80;99.90;;;;;;4190853;28;20056;-79
2021/04/14 06:57:19;;;;;;;17.88;14.27;;;4.90;99.90;;;;;;4175927;28;20533;-81
2021/04/14 06:59:23;;;;;;;24.35;13.63;;;5.10;99.90;;;;;;4176017;28;20733;-80
2021/04/14 07:01:31;;;;;;;15.82;10.75;;;5.30;99.90;;;;;;4205173;28;20044;-78
2021/04/14 07:04:03;;;;;;;13.80;10.57;;;5.50;99.90;;;;;;4170200;28;20128;-78
2021/04/14 07:06:08;;;;;;;14.27;10.88;;;5.40;99.90;;;;;;4177744;28;20412;-79
2021/04/14 07:08:27;;;;;;;16.83;10.25;;;5.50;99.90;;;;;;4180402;28;20036;-84
2021/04/14 07:10:33;;;;;;;13.27;10.65;;;5.50;99.90;;;;;;4187999;28;20036;-79
2021/04/14 07:12:34;;;;;;;11.90;10.65;;;5.60;99.90;;;;;;4176649;28;20041;-82
2021/04/14 07:14:35;;;;;;;13.50;10.80;;;5.70;99.90;;;;;;4189816;28;20041;-81
2021/04/14 07:17:31;;;;;;;17.85;12.43;;;5.80;99.90;;;;;;4177310;28;20076;-81
2021/04/14 07:20:00;;;;;;;15.73;11.15;;;5.90;99.90;;;;;;4192248;28;20044;-81
2021/04/14 07:22:47;;;;;;;17.15;10.82;;;5.80;99.90;;;;;;4168625;28;20033;-82
2021/04/14 07:24:56;;;;;;;16.05;11.43;;;5.90;99.90;;;;;;4192183;28;20106;-81
2021/04/14 07:27:36;;;;;;;14.10;11.15;;;5.90;99.90;;;;;;4176773;28;20033;-79
2021/04/14 07:29:49;;;;;;;17.80;11.48;;;5.80;99.90;;;;;;4192142;28;20028;-79
2021/04/14 07:32:14;;;;;;;16.88;12.05;;;5.70;99.90;;;;;;4193000;28;20458;-80
2021/04/14 07:34:26;;;;;;;17.05;11.55;;;5.70;99.90;;;;;;4190788;28;20599;-82
2021/04/14 07:37:09;;;;;;;17.23;11.82;;;5.60;99.90;;;;;;4175821;28;20439;-80
2021/04/14 07:39:26;;;;;;;20.63;13.00;;;5.60;99.90;;;;;;4174664;28;20115;-81
2021/04/14 07:41:41;;;;;;;16.73;13.27;;;5.60;99.90;;;;;;4192898;28;20028;-79
2021/04/14 07:44:29;;;;;;;21.15;15.18;;;5.60;99.90;;;;;;4187299;28;20060;-79
2021/04/14 07:46:35;;;;;;;18.27;13.48;;;5.80;99.90;;;;;;4208419;28;20047;-83
2021/04/14 08:01:37;;;;;;;17.50;15.55;;;6.30;99.90;;;;;;4195028;27;20950;-81
2021/04/14 08:03:37;;;;;;;20.85;15.55;;;7.30;99.90;;;;;;4188241;28;20484;-82
2021/04/14 08:05:39;;;;;;;16.33;13.20;;;7.40;99.90;;;;;;4189486;28;20053;-81
2021/04/14 08:07:46;;;;;;;18.27;12.52;;;7.50;99.90;;;;;;4189764;28;20481;-81
2021/04/14 08:09:58;;;;;;;19.60;14.15;;;7.50;99.90;;;;;;4189651;28;20021;-79
2021/04/14 08:12:06;;;;;;;14.55;13.02;;;7.40;99.90;;;;;;4187468;28;20037;-79
2021/04/14 08:14:24;;;;;;;16.00;12.98;;;7.50;99.90;;;;;;4210025;28;20083;-83
2021/04/14 08:16:36;;;;;;;18.67;13.20;;;7.10;99.90;;;;;;4184025;28;20523;-82
2021/04/14 08:18:38;;;;;;;21.27;14.85;;;7.00;99.90;;;;;;4198766;28;20071;-82
2021/04/14 08:20:41;;;;;;;18.10;14.52;;;7.00;99.90;;;;;;4184738;28;20028;-80
2021/04/14 08:22:41;;;;;;;27.45;14.60;;;7.00;99.90;;;;;;4184510;28;20549;-80
2021/04/14 08:24:54;;;;;;;21.85;14.65;;;6.80;99.90;;;;;;4189916;28;20032;-84
2021/04/14 08:26:58;;;;;;;20.75;14.27;;;6.90;99.90;;;;;;4189895;28;20035;-82
2021/04/14 08:29:11;;;;;;;17.25;13.10;;;6.90;99.90;;;;;;4190673;28;20029;-82
2021/04/14 08:31:36;;;;;;;19.73;13.45;;;6.90;99.90;;;;;;4187967;28;20040;-82
2021/04/14 08:33:37;;;;;;;18.33;13.15;;;7.10;99.90;;;;;;4189685;28;20071;-83
2021/04/14 08:35:41;;;;;;;14.95;11.52;;;7.10;99.90;;;;;;4180141;28;20025;-82
2021/04/14 08:37:42;;;;;;;19.63;13.10;;;7.10;99.90;;;;;;4188702;28;20139;-80
2021/04/14 08:40:12;;;;;;;14.55;11.60;;;6.90;99.90;;;;;;4187699;28;20067;-84
2021/04/14 08:42:27;;;;;;;16.15;11.45;;;7.00;99.90;;;;;;4185609;28;20027;-80
2021/04/14 08:44:31;;;;;;;15.25;11.60;;;7.20;99.90;;;;;;4181463;28;20027;-83
2021/04/14 08:46:37;;;;;;;17.55;12.05;;;7.50;99.90;;;;;;4190413;28;20082;-83
2021/04/14 08:48:39;;;;;;;16.13;12.30;;;7.70;99.90;;;;;;4188505;28;20039;-82
2021/04/14 08:50:58;;;;;;;15.27;11.63;;;7.50;99.90;;;;;;4188542;28;20438;-82
2021/04/14 08:53:03;;;;;;;17.73;12.35;;;7.20;99.90;;;;;;4178478;28;20029;-82
2021/04/14 08:55:05;;;;;;;20.85;12.77;;;7.20;99.90;;;;;;4189399;28;20492;-85
2021/04/14 08:57:07;;;;;;;16.83;12.75;;;7.20;99.90;;;;;;4187900;28;20487;-83
2021/04/14 08:59:10;;;;;;;14.25;10.80;;;7.30;99.90;;;;;;4186312;28;20489;-85
2021/04/14 09:01:16;;;;;;;18.70;13.18;;;7.40;99.90;;;;;;4182301;28;20048;-83
2021/04/14 09:03:26;;;;;;;18.63;11.65;;;7.40;99.90;;;;;;4172997;28;20025;-84
2021/04/14 09:05:28;;;;;;;16.80;11.10;;;7.30;99.90;;;;;;4178403;28;20032;-83
2021/04/14 09:07:36;;;;;;;18.15;13.57;;;7.40;99.90;;;;;;4175742;28;20031;-83
2021/04/14 09:09:48;;;;;;;18.73;12.18;;;7.40;99.90;;;;;;4177505;28;20075;-84
2021/04/14 09:12:06;;;;;;;17.85;12.77;;;7.20;99.90;;;;;;4176554;28;20055;-83
2021/04/14 09:14:20;;;;;;;16.58;13.38;;;7.10;99.90;;;;;;4177556;28;20563;-84
2021/04/14 09:16:48;;;;;;;15.32;12.27;;;6.80;99.90;;;;;;4173193;28;20044;-84
2021/04/14 09:18:48;;;;;;;15.85;12.32;;;6.80;99.90;;;;;;4190640;28;20043;-84
2021/04/14 09:20:49;;;;;;;17.98;11.95;;;6.90;99.90;;;;;;4175267;28;20115;-83
2021/04/14 09:23:02;;;;;;;15.65;12.20;;;6.80;99.90;;;;;;4177947;28;20054;-83
2021/04/14 09:25:03;;;;;;;20.38;12.68;;;6.80;99.90;;;;;;4176747;28;20040;-84
2021/04/14 09:27:18;;;;;;;17.27;13.45;;;6.70;99.90;;;;;;4177694;28;20037;-86
2021/04/14 09:29:31;;;;;;;19.35;14.88;;;6.60;99.90;;;;;;4178184;28;20087;-84
2021/04/14 09:31:40;;;;;;;21.98;13.82;;;6.40;99.90;;;;;;4173098;28;20420;-85
2021/04/14 09:33:45;;;;;;;19.77;14.77;;;6.50;99.90;;;;;;4170325;28;20112;-88
2021/04/14 09:35:49;;;;;;;19.55;15.63;;;6.60;99.90;;;;;;4176969;28;20065;-84
2021/04/14 09:37:52;;;;;;;18.92;13.63;;;6.70;99.90;;;;;;4170578;28;20049;-87
2021/04/14 09:39:59;;;;;;;18.35;14.70;;;6.80;99.90;;;;;;4168251;28;20025;-81
2021/04/14 09:42:00;;;;;;;23.73;14.68;;;6.90;99.90;;;;;;4172029;28;20076;-81
2021/04/14 09:44:38;;;;;;;21.48;15.43;;;7.00;99.90;;;;;;4174781;28;20071;-83
2021/04/14 09:46:53;;;;;;;21.13;14.55;;;7.40;99.90;;;;;;4159265;28;20061;-83
2021/04/14 09:48:54;;;;;;;20.08;15.13;;;7.70;99.90;;;;;;4188051;28;20056;-82
2021/04/14 09:50:54;;;;;;;19.00;14.48;;;7.80;99.90;;;;;;4177519;28;20574;-81
2021/04/14 09:53:00;;;;;;;21.17;15.75;;;7.90;99.90;;;;;;4176642;28;20037;-82
2021/04/14 09:55:08;;;;;;;20.23;15.50;;;8.00;99.90;;;;;;4177372;28;20025;-79
2021/04/14 09:57:17;;;;;;;20.92;16.92;;;8.00;99.90;;;;;;4177123;28;21709;-78
2021/04/14 09:59:22;;;;;;;19.10;14.98;;;8.10;99.90;;;;;;4177148;28;20021;-81
2021/04/14 10:01:34;;;;;;;20.70;15.55;;;8.20;99.90;;;;;;4175006;28;20528;-78
2021/04/14 10:03:37;;;;;;;19.83;15.70;;;8.20;99.90;;;;;;4177357;28;20056;-78
2021/04/14 10:05:39;;;;;;;22.73;16.17;;;8.30;99.90;;;;;;4177126;28;21262;-78
2021/04/14 10:07:43;;;;;;;21.00;15.63;;;8.70;99.90;;;;;;4176114;28;20025;-78
2021/04/14 10:09:44;;;;;;;19.13;15.75;;;9.50;99.90;;;;;;4171185;28;20025;-77
2021/04/14 10:11:44;;;;;;;19.45;15.05;;;10.20;99.90;;;;;;4175718;28;20112;-77
2021/04/14 10:13:45;;;;;;;19.88;14.27;;;11.10;99.90;;;;;;4176528;28;20040;-78
2021/04/14 10:15:48;;;;;;;17.08;14.48;;;11.60;99.90;;;;;;4172874;28;20041;-77
2021/04/14 10:17:49;;;;;;;19.23;15.15;;;12.30;99.90;;;;;;4174594;28;20033;-77
2021/04/14 10:19:58;;;;;;;18.60;13.75;;;13.40;99.90;;;;;;4179016;28;20131;-81
2021/04/14 10:22:15;;;;;;;18.48;14.80;;;13.60;99.90;;;;;;4176155;28;20384;-79
2021/04/14 10:24:17;;;;;;;23.17;13.93;;;12.70;99.90;;;;;;4177793;28;20135;-79
2021/04/14 10:26:18;;;;;;;20.10;13.60;;;12.30;99.90;;;;;;4177664;28;20040;-78
2021/04/14 10:28:24;;;;;;;21.42;14.95;;;11.70;99.90;;;;;;4172831;28;20123;-78
2021/04/14 10:30:27;;;;;;;17.80;14.80;;;10.60;99.90;;;;;;4177055;28;20036;-79
2021/04/14 10:32:29;;;;;;;17.27;14.10;;;11.60;99.90;;;;;;4173525;28;20029;-80
2021/04/14 10:34:35;;;;;;;22.92;15.02;;;11.70;99.90;;;;;;4172392;28;20803;-80
2021/04/14 10:36:43;;;;;;;17.38;13.82;;;11.70;99.90;;;;;;4177066;28;20053;-80
2021/04/14 10:38:43;;;;;;;17.55;11.82;;;13.20;99.90;;;;;;4177238;28;20239;-80
2021/04/14 10:40:44;;;;;;;12.68;9.63;;;13.80;99.90;;;;;;4174480;28;20033;-80
2021/04/14 10:42:47;;;;;;;12.73;10.07;;;14.00;99.90;;;;;;4175413;28;20033;-81
2021/04/14 10:44:48;;;;;;;11.23;9.95;;;13.80;99.90;;;;;;4173653;28;20554;-80
2021/04/14 10:46:57;;;;;;;12.15;10.65;;;13.10;99.90;;;;;;4176984;28;20491;-79
2021/04/14 10:49:05;;;;;;;13.07;9.82;;;12.80;99.90;;;;;;4179615;28;20530;-81
2021/04/14 10:51:31;;;;;;;10.70;9.30;;;12.60;99.90;;;;;;4157082;28;20487;-80
2021/04/14 10:53:35;;;;;;;13.88;8.95;;;12.70;99.90;;;;;;4174673;28;20126;-81
2021/04/14 10:55:47;;;;;;;10.50;8.93;;;12.90;99.90;;;;;;4176600;28;20036;-80